sensor_id;sensor_type;location;lat;lon;timestamp;pressure;altitude;pressure_sealevel;temperature;humidity
13661;BME280;6903;49.480;11.102;2023-01-29T00:01:39;99008.44;;;-1.17;100.00
13661;BME280;6903;49.480;11.102;2023-01-29T00:04:05;99006.84;;;-1.23;100.00
13661;BME280;6903;49.480;11.102;2023-01-29T00:06:31;99007.78;;;-1.30;100.00
13661;BME280;6903;49.480;11.102;2023-01-29T00:08:56;99007.75;;;-1.27;100.00
13661;BME280;6903;49.480;11.102;2023-01-29T00:11:22;99002.56;;;-1.27;100.00
13661;BME280;6903;49.480;11.102;2023-01-29T00:13:50;99014.69;;;-1.29;100.00
13661;BME280;6903;49.480;11.102;2023-01-29T00:16:15;99011.41;;;-1.40;100.00
13661;BME280;6903;49.480;11.102;2023-01-29T00:18:41;99015.63;;;-1.34;100.00
13661;BME280;6903;49.480;11.102;2023-01-29T00:21:14;99013.97;;;-1.38;100.00
13661;BME280;6903;49.480;11.102;2023-01-29T00:23:40;99010.50;;;-1.37;100.00
13661;BME280;6903;49.480;11.102;2023-01-29T00:26:06;99001.91;;;-1.39;100.00
13661;BME280;6903;49.480;11.102;2023-01-29T00:28:32;98999.22;;;-1.33;100.00
13661;BME280;6903;49.480;11.102;2023-01-29T00:30:57;98997.44;;;-1.30;100.00
13661;BME280;6903;49.480;11.102;2023-01-29T00:33:23;98998.31;;;-1.29;100.00
13661;BME280;6903;49.480;11.102;2023-01-29T00:35:48;99000.88;;;-1.28;100.00
13661;BME280;6903;49.480;11.102;2023-01-29T00:38:13;98994.00;;;-1.29;100.00
13661;BME280;6903;49.480;11.102;2023-01-29T00:40:39;98985.38;;;-1.29;100.00
13661;BME280;6903;49.480;11.102;2023-01-29T00:43:24;98984.50;;;-1.30;100.00
13661;BME280;6903;49.480;11.102;2023-01-29T00:46:08;98993.19;;;-1.32;100.00
13661;BME280;6903;49.480;11.102;2023-01-29T00:48:34;98993.19;;;-1.32;100.00
13661;BME280;6903;49.480;11.102;2023-01-29T00:51:00;98988.03;;;-1.32;100.00
13661;BME280;6903;49.480;11.102;2023-01-29T00:53:26;98986.41;;;-1.41;100.00
13661;BME280;6903;49.480;11.102;2023-01-29T00:55:51;98988.09;;;-1.37;100.00
13661;BME280;6903;49.480;11.102;2023-01-29T00:58:16;98988.19;;;-1.45;100.00
13661;BME280;6903;49.480;11.102;2023-01-29T01:00:47;98983.03;;;-1.45;100.00
13661;BME280;6903;49.480;11.102;2023-01-29T01:03:13;98990.72;;;-1.42;100.00
13661;BME280;6903;49.480;11.102;2023-01-29T01:05:38;98985.50;;;-1.38;100.00
13661;BME280;6903;49.480;11.102;2023-01-29T01:08:03;98981.22;;;-1.39;100.00
13661;BME280;6903;49.480;11.102;2023-01-29T01:10:58;98983.75;;;-1.36;100.00
13661;BME280;6903;49.480;11.102;2023-01-29T01:13:27;98980.38;;;-1.42;100.00
13661;BME280;6903;49.480;11.102;2023-01-29T01:16:26;98989.94;;;-1.47;100.00
13661;BME280;6903;49.480;11.102;2023-01-29T01:18:51;98995.28;;;-1.57;100.00
13661;BME280;6903;49.480;11.102;2023-01-29T01:21:16;98985.88;;;-1.63;100.00
13661;BME280;6903;49.480;11.102;2023-01-29T01:23:42;98992.03;;;-1.70;100.00
13661;BME280;6903;49.480;11.102;2023-01-29T01:26:08;98986.81;;;-1.67;100.00
13661;BME280;6903;49.480;11.102;2023-01-29T01:28:34;98990.25;;;-1.65;100.00
13661;BME280;6903;49.480;11.102;2023-01-29T01:31:07;98992.09;;;-1.73;100.00
13661;BME280;6903;49.480;11.102;2023-01-29T01:33:32;98981.69;;;-1.70;100.00
13661;BME280;6903;49.480;11.102;2023-01-29T01:36:00;98981.59;;;-1.64;100.00
13661;BME280;6903;49.480;11.102;2023-01-29T01:38:25;98975.50;;;-1.61;100.00
13661;BME280;6903;49.480;11.102;2023-01-29T01:40:51;98984.13;;;-1.61;100.00
13661;BME280;6903;49.480;11.102;2023-01-29T01:43:16;98986.72;;;-1.61;100.00
13661;BME280;6903;49.480;11.102;2023-01-29T01:45:41;98992.81;;;-1.63;100.00
13661;BME280;6903;49.480;11.102;2023-01-29T01:48:22;98998.03;;;-1.69;100.00
13661;BME280;6903;49.480;11.102;2023-01-29T01:50:57;98994.69;;;-1.74;100.00
13661;BME280;6903;49.480;11.102;2023-01-29T01:53:36;98994.56;;;-1.65;100.00
13661;BME280;6903;49.480;11.102;2023-01-29T01:56:11;98986.75;;;-1.62;100.00
13661;BME280;6903;49.480;11.102;2023-01-29T01:58:50;98990.28;;;-1.68;100.00
13661;BME280;6903;49.480;11.102;2023-01-29T02:01:19;98983.34;;;-1.66;100.00
13661;BME280;6903;49.480;11.102;2023-01-29T02:04:00;98993.00;;;-1.78;100.00
13661;BME280;6903;49.480;11.102;2023-01-29T02:06:45;98986.94;;;-1.77;100.00
13661;BME280;6903;49.480;11.102;2023-01-29T02:09:43;98983.41;;;-1.69;100.00
13661;BME280;6903;49.480;11.102;2023-01-29T02:12:12;98989.44;;;-1.70;100.00
13661;BME280;6903;49.480;11.102;2023-01-29T02:14:39;98987.66;;;-1.65;100.00
13661;BME280;6903;49.480;11.102;2023-01-29T02:17:07;98980.78;;;-1.67;100.00
13661;BME280;6903;49.480;11.102;2023-01-29T02:20:02;98992.09;;;-1.73;100.00
13661;BME280;6903;49.480;11.102;2023-01-29T02:28:11;98996.38;;;-1.73;100.00
13661;BME280;6903;49.480;11.102;2023-01-29T02:31:03;98988.75;;;-1.81;100.00
13661;BME280;6903;49.480;11.102;2023-01-29T02:33:47;98987.81;;;-1.77;100.00
13661;BME280;6903;49.480;11.102;2023-01-29T02:36:21;98978.31;;;-1.75;100.00
13661;BME280;6903;49.480;11.102;2023-01-29T02:49:34;98978.31;;;-1.75;100.00
13661;BME280;6903;49.480;11.102;2023-01-29T02:52:24;98971.41;;;-1.73;100.00
13661;BME280;6903;49.480;11.102;2023-01-29T02:54:56;98978.34;;;-1.76;100.00
13661;BME280;6903;49.480;11.102;2023-01-29T02:57:29;98967.19;;;-1.80;100.00
13661;BME280;6903;49.480;11.102;2023-01-29T03:00:02;98967.13;;;-1.75;100.00
13661;BME280;6903;49.480;11.102;2023-01-29T03:02:41;98976.63;;;-1.76;100.00
13661;BME280;6903;49.480;11.102;2023-01-29T03:05:15;98982.69;;;-1.80;100.00
13661;BME280;6903;49.480;11.102;2023-01-29T03:07:46;98976.84;;;-1.91;100.00
13661;BME280;6903;49.480;11.102;2023-01-29T03:10:26;98975.13;;;-1.92;100.00
13661;BME280;6903;49.480;11.102;2023-01-29T03:13:14;98988.88;;;-1.90;100.00
13661;BME280;6903;49.480;11.102;2023-01-29T03:15:45;98991.47;;;-1.91;100.00
13661;BME280;6903;49.480;11.102;2023-01-29T03:18:17;98989.75;;;-1.91;100.00
13661;BME280;6903;49.480;11.102;2023-01-29T03:20:49;98988.91;;;-1.93;100.00
13661;BME280;6903;49.480;11.102;2023-01-29T03:23:20;98991.47;;;-1.91;100.00
13661;BME280;6903;49.480;11.102;2023-01-29T03:25:53;99003.50;;;-1.89;100.00
13661;BME280;6903;49.480;11.102;2023-01-29T03:28:43;99006.91;;;-1.84;100.00
13661;BME280;6903;49.480;11.102;2023-01-29T03:31:29;98995.78;;;-1.90;100.00
13661;BME280;6903;49.480;11.102;2023-01-29T03:34:20;98995.03;;;-2.00;100.00
13661;BME280;6903;49.480;11.102;2023-01-29T03:37:39;98992.47;;;-2.03;100.00
13661;BME280;6903;49.480;11.102;2023-01-29T03:39:44;99005.34;;;-2.00;100.00
13661;BME280;6903;49.480;11.102;2023-01-29T03:47:44;99002.88;;;-2.06;100.00
13661;BME280;6903;49.480;11.102;2023-01-29T03:50:23;98991.63;;;-2.02;100.00
13661;BME280;6903;49.480;11.102;2023-01-29T03:53:05;98997.59;;;-1.97;100.00
13661;BME280;6903;49.480;11.102;2023-01-29T03:55:37;99006.13;;;-1.93;100.00
13661;BME280;6903;49.480;11.102;2023-01-29T03:58:22;99000.06;;;-1.89;100.00
13661;BME280;6903;49.480;11.102;2023-01-29T04:00:55;99004.31;;;-1.85;100.00
13661;BME280;6903;49.480;11.102;2023-01-29T04:03:37;99000.06;;;-1.89;100.00
13661;BME280;6903;49.480;11.102;2023-01-29T04:06:07;99009.47;;;-1.84;100.00
13661;BME280;6903;49.480;11.102;2023-01-29T04:08:50;99009.44;;;-1.81;100.00
13661;BME280;6903;49.480;11.102;2023-01-29T04:11:19;99005.91;;;-1.77;100.00
13661;BME280;6903;49.480;11.102;2023-01-29T04:13:46;99004.25;;;-1.81;100.00
13661;BME280;6903;49.480;11.102;2023-01-29T04:16:17;99014.63;;;-1.85;100.00
13661;BME280;6903;49.480;11.102;2023-01-29T04:18:45;99011.25;;;-1.89;100.00
13661;BME280;6903;49.480;11.102;2023-01-29T04:21:11;99012.16;;;-1.93;100.00
13661;BME280;6903;49.480;11.102;2023-01-29T04:23:37;99013.88;;;-1.93;100.00
13661;BME280;6903;49.480;11.102;2023-01-29T04:29:19;99004.56;;;-2.03;100.00
13661;BME280;6903;49.480;11.102;2023-01-29T04:31:59;98995.91;;;-2.01;100.00
13661;BME280;6903;49.480;11.102;2023-01-29T04:34:39;98995.88;;;-1.98;100.00
13661;BME280;6903;49.480;11.102;2023-01-29T04:45:00;99002.09;;;-2.12;100.00
13661;BME280;6903;49.480;11.102;2023-01-29T04:47:44;99006.44;;;-2.14;100.00
13661;BME280;6903;49.480;11.102;2023-01-29T04:52:52;99014.94;;;-2.08;100.00
13661;BME280;6903;49.480;11.102;2023-01-29T04:55:29;99014.06;;;-2.05;100.00
13661;BME280;6903;49.480;11.102;2023-01-29T05:00:41;99003.69;;;-2.04;100.00
13661;BME280;6903;49.480;11.102;2023-01-29T05:03:07;98996.78;;;-2.02;100.00
13661;BME280;6903;49.480;11.102;2023-01-29T05:05:38;98982.13;;;-1.98;100.00
13661;BME280;6903;49.480;11.102;2023-01-29T05:08:06;98982.91;;;-1.96;100.00
13661;BME280;6903;49.480;11.102;2023-01-29T05:10:32;98985.53;;;-1.98;100.00
13661;BME280;6903;49.480;11.102;2023-01-29T05:13:00;98984.69;;;-2.00;100.00
13661;BME280;6903;49.480;11.102;2023-01-29T05:15:36;98982.91;;;-1.95;100.00
13661;BME280;6903;49.480;11.102;2023-01-29T05:18:04;98986.31;;;-1.93;100.00
13661;BME280;6903;49.480;11.102;2023-01-29T05:20:34;98991.47;;;-1.91;100.00
13661;BME280;6903;49.480;11.102;2023-01-29T05:23:01;98990.63;;;-1.92;100.00
13661;BME280;6903;49.480;11.102;2023-01-29T05:25:29;98990.63;;;-1.93;100.00
13661;BME280;6903;49.480;11.102;2023-01-29T05:27:54;98985.41;;;-1.89;100.00
13661;BME280;6903;49.480;11.102;2023-01-29T05:30:31;98985.41;;;-1.89;100.00
13661;BME280;6903;49.480;11.102;2023-01-29T05:32:56;98981.94;;;-1.88;100.00
13661;BME280;6903;49.480;11.102;2023-01-29T05:35:21;98970.75;;;-1.88;100.00
13661;BME280;6903;49.480;11.102;2023-01-29T05:37:47;98958.78;;;-1.94;100.00
13661;BME280;6903;49.480;11.102;2023-01-29T05:40:12;98968.16;;;-1.88;100.00
13661;BME280;6903;49.480;11.102;2023-01-29T05:42:37;98953.53;;;-1.88;100.00
13661;BME280;6903;49.480;11.102;2023-01-29T05:45:03;98955.22;;;-1.87;100.00
13661;BME280;6903;49.480;11.102;2023-01-29T05:47:29;98947.44;;;-1.84;100.00
13661;BME280;6903;49.480;11.102;2023-01-29T05:49:54;98937.06;;;-1.81;100.00
13661;BME280;6903;49.480;11.102;2023-01-29T05:52:19;98930.16;;;-1.82;100.00
13661;BME280;6903;49.480;11.102;2023-01-29T05:54:45;98943.94;;;-1.80;100.00
13661;BME280;6903;49.480;11.102;2023-01-29T05:57:10;98939.56;;;-1.76;100.00
13661;BME280;6903;49.480;11.102;2023-01-29T05:59:35;98931.75;;;-1.72;100.00
13661;BME280;6903;49.480;11.102;2023-01-29T06:02:01;98942.00;;;-1.67;100.00
13661;BME280;6903;49.480;11.102;2023-01-29T06:04:26;98942.84;;;-1.65;100.00
13661;BME280;6903;49.480;11.102;2023-01-29T06:06:51;98943.72;;;-1.66;100.00
13661;BME280;6903;49.480;11.102;2023-01-29T06:09:16;98941.94;;;-1.64;100.00
13661;BME280;6903;49.480;11.102;2023-01-29T06:11:42;98941.94;;;-1.64;100.00
13661;BME280;6903;49.480;11.102;2023-01-29T06:14:07;98947.09;;;-1.63;100.00
13661;BME280;6903;49.480;11.102;2023-01-29T06:16:32;98945.44;;;-1.65;100.00
13661;BME280;6903;49.480;11.102;2023-01-29T06:18:58;98951.47;;;-1.65;100.00
13661;BME280;6903;49.480;11.102;2023-01-29T06:21:23;98948.88;;;-1.65;100.00
13661;BME280;6903;49.480;11.102;2023-01-29T06:23:51;98941.94;;;-1.63;100.00
13661;BME280;6903;49.480;11.102;2023-01-29T06:26:16;98950.53;;;-1.61;100.00
13661;BME280;6903;49.480;11.102;2023-01-29T06:28:42;98952.25;;;-1.61;100.00
13661;BME280;6903;49.480;11.102;2023-01-29T06:31:09;98946.25;;;-1.63;100.00
13661;BME280;6903;49.480;11.102;2023-01-29T06:33:35;98947.91;;;-1.59;100.00
13661;BME280;6903;49.480;11.102;2023-01-29T06:36:02;98952.97;;;-1.52;100.00
13661;BME280;6903;49.480;11.102;2023-01-29T06:38:28;98951.25;;;-1.53;100.00
13661;BME280;6903;49.480;11.102;2023-01-29T06:40:54;98953.00;;;-1.53;100.00
13661;BME280;6903;49.480;11.102;2023-01-29T06:43:20;98953.75;;;-1.48;100.00
13661;BME280;6903;49.480;11.102;2023-01-29T06:45:53;98966.69;;;-1.45;100.00
13661;BME280;6903;49.480;11.102;2023-01-29T06:48:19;98965.75;;;-1.42;100.00
13661;BME280;6903;49.480;11.102;2023-01-29T06:50:44;98966.56;;;-1.39;100.00
13661;BME280;6903;49.480;11.102;2023-01-29T06:53:10;98963.94;;;-1.36;100.00
13661;BME280;6903;49.480;11.102;2023-01-29T06:55:36;98962.16;;;-1.32;100.00
13661;BME280;6903;49.480;11.102;2023-01-29T06:58:09;98972.38;;;-1.26;100.00
13661;BME280;6903;49.480;11.102;2023-01-29T07:00:35;98980.91;;;-1.20;100.00
13661;BME280;6903;49.480;11.102;2023-01-29T07:03:02;98968.78;;;-1.16;100.00
13661;BME280;6903;49.480;11.102;2023-01-29T07:05:27;98972.16;;;-1.11;100.00
13661;BME280;6903;49.480;11.102;2023-01-29T07:07:53;98977.25;;;-1.08;100.00
13661;BME280;6903;49.480;11.102;2023-01-29T07:10:19;98984.84;;;-0.99;100.00
13661;BME280;6903;49.480;11.102;2023-01-29T07:12:44;98985.69;;;-0.97;100.00
13661;BME280;6903;49.480;11.102;2023-01-29T07:15:10;98987.28;;;-0.89;100.00
13661;BME280;6903;49.480;11.102;2023-01-29T07:17:37;98992.38;;;-0.84;100.00
13661;BME280;6903;49.480;11.102;2023-01-29T07:20:02;98993.19;;;-0.81;100.00
13661;BME280;6903;49.480;11.102;2023-01-29T07:22:28;98987.88;;;-0.75;100.00
13661;BME280;6903;49.480;11.102;2023-01-29T07:24:53;98984.31;;;-0.69;100.00
13661;BME280;6903;49.480;11.102;2023-01-29T07:27:18;98979.91;;;-0.64;100.00
13661;BME280;6903;49.480;11.102;2023-01-29T07:29:44;98985.03;;;-0.61;100.00
13661;BME280;6903;49.480;11.102;2023-01-29T07:32:09;98985.81;;;-0.58;100.00
13661;BME280;6903;49.480;11.102;2023-01-29T07:34:34;98984.84;;;-0.52;100.00
13661;BME280;6903;49.480;11.102;2023-01-29T07:37:00;98980.38;;;-0.44;100.00
13661;BME280;6903;49.480;11.102;2023-01-29T07:39:25;98986.34;;;-0.39;100.00
13661;BME280;6903;49.480;11.102;2023-01-29T07:41:50;98975.84;;;-0.33;100.00
13661;BME280;6903;49.480;11.102;2023-01-29T07:44:16;98985.22;;;-0.26;100.00
13661;BME280;6903;49.480;11.102;2023-01-29T07:46:41;98973.88;;;-0.22;100.00
13661;BME280;6903;49.480;11.102;2023-01-29T07:49:06;98991.09;;;-0.18;100.00
13661;BME280;6903;49.480;11.102;2023-01-29T07:51:31;98985.03;;;-0.19;100.00
13661;BME280;6903;49.480;11.102;2023-01-29T07:53:57;98994.44;;;-0.13;100.00
13661;BME280;6903;49.480;11.102;2023-01-29T07:56:22;98995.25;;;-0.11;100.00
13661;BME280;6903;49.480;11.102;2023-01-29T07:58:47;99002.13;;;-0.09;100.00
13661;BME280;6903;49.480;11.102;2023-01-29T08:01:13;99003.81;;;-0.08;100.00
13661;BME280;6903;49.480;11.102;2023-01-29T08:03:38;99013.28;;;-0.05;100.00
13661;BME280;6903;49.480;11.102;2023-01-29T08:06:04;99021.81;;;0.00;100.00
13661;BME280;6903;49.480;11.102;2023-01-29T08:08:29;99029.50;;;0.05;100.00
13661;BME280;6903;49.480;11.102;2023-01-29T08:10:54;99025.16;;;0.05;100.00
13661;BME280;6903;49.480;11.102;2023-01-29T08:13:20;99019.06;;;0.08;100.00
13661;BME280;6903;49.480;11.102;2023-01-29T08:15:45;99023.44;;;0.04;100.00
13661;BME280;6903;49.480;11.102;2023-01-29T08:18:11;99031.22;;;0.04;100.00
13661;BME280;6903;49.480;11.102;2023-01-29T08:20:37;99028.69;;;0.01;100.00
13661;BME280;6903;49.480;11.102;2023-01-29T08:23:14;99023.53;;;0.01;100.00
13661;BME280;6903;49.480;11.102;2023-01-29T08:25:40;99030.38;;;0.03;100.00
13661;BME280;6903;49.480;11.102;2023-01-29T08:28:05;99027.00;;;0.00;100.00
13661;BME280;6903;49.480;11.102;2023-01-29T08:30:32;99029.53;;;0.03;100.00
13661;BME280;6903;49.480;11.102;2023-01-29T08:32:58;99029.47;;;0.06;100.00
13661;BME280;6903;49.480;11.102;2023-01-29T08:35:24;99026.88;;;0.06;100.00
13661;BME280;6903;49.480;11.102;2023-01-29T08:37:54;99023.44;;;0.04;100.00
13661;BME280;6903;49.480;11.102;2023-01-29T08:40:20;99018.19;;;0.07;100.00
13661;BME280;6903;49.480;11.102;2023-01-29T08:42:45;99019.09;;;0.06;100.00
13661;BME280;6903;49.480;11.102;2023-01-29T08:45:10;99028.41;;;0.16;100.00
13661;BME280;6903;49.480;11.102;2023-01-29T08:47:36;99030.78;;;0.25;100.00
13661;BME280;6903;49.480;11.102;2023-01-29T08:50:01;99037.53;;;0.34;100.00
13661;BME280;6903;49.480;11.102;2023-01-29T08:52:26;99031.91;;;0.52;100.00
13661;BME280;6903;49.480;11.102;2023-01-29T08:54:51;99036.38;;;0.47;100.00
13661;BME280;6903;49.480;11.102;2023-01-29T08:57:17;99037.06;;;0.55;100.00
13661;BME280;6903;49.480;11.102;2023-01-29T08:59:43;99031.09;;;0.50;100.00
13661;BME280;6903;49.480;11.102;2023-01-29T09:02:10;99030.66;;;0.68;100.00
13661;BME280;6903;49.480;11.102;2023-01-29T09:04:35;99021.53;;;0.88;100.00
13661;BME280;6903;49.480;11.102;2023-01-29T09:07:01;99029.56;;;1.13;100.00
13661;BME280;6903;49.480;11.102;2023-01-29T09:09:26;99027.38;;;1.31;100.00
13661;BME280;6903;49.480;11.102;2023-01-29T09:11:51;99026.81;;;1.53;100.00
13661;BME280;6903;49.480;11.102;2023-01-29T09:14:17;99029.97;;;1.64;100.00
13661;BME280;6903;49.480;11.102;2023-01-29T09:16:42;99019.91;;;1.52;100.00
13661;BME280;6903;49.480;11.102;2023-01-29T09:19:07;99028.34;;;1.60;100.00
13661;BME280;6903;49.480;11.102;2023-01-29T09:21:33;99022.09;;;1.67;100.00
13661;BME280;6903;49.480;11.102;2023-01-29T09:23:58;99034.19;;;1.69;100.00
13661;BME280;6903;49.480;11.102;2023-01-29T09:26:23;99030.53;;;1.75;100.00
13661;BME280;6903;49.480;11.102;2023-01-29T09:28:49;99026.03;;;1.81;100.00
13661;BME280;6903;49.480;11.102;2023-01-29T09:31:14;99025.66;;;1.95;100.00
13661;BME280;6903;49.480;11.102;2023-01-29T09:33:39;99025.38;;;2.04;100.00
13661;BME280;6903;49.480;11.102;2023-01-29T09:36:05;99007.81;;;2.12;100.00
13661;BME280;6903;49.480;11.102;2023-01-29T09:38:31;99012.03;;;2.16;100.00
13661;BME280;6903;49.480;11.102;2023-01-29T09:41:31;99002.41;;;2.18;100.00
13661;BME280;6903;49.480;11.102;2023-01-29T09:44:02;98990.84;;;2.28;100.00
13661;BME280;6903;49.480;11.102;2023-01-29T09:46:37;98998.31;;;2.40;100.00
13661;BME280;6903;49.480;11.102;2023-01-29T09:49:13;99001.44;;;2.51;100.00
13661;BME280;6903;49.480;11.102;2023-01-29T09:51:43;98992.81;;;2.76;100.00
13661;BME280;6903;49.480;11.102;2023-01-29T09:54:23;98986.03;;;2.97;100.00
13661;BME280;6903;49.480;11.102;2023-01-29T09:56:52;98991.41;;;3.19;100.00
13661;BME280;6903;49.480;11.102;2023-01-29T09:59:20;98987.47;;;3.32;100.00
13661;BME280;6903;49.480;11.102;2023-01-29T10:02:10;98976.44;;;3.48;100.00
13661;BME280;6903;49.480;11.102;2023-01-29T10:05:02;98971.06;;;3.53;100.00
13661;BME280;6903;49.480;11.102;2023-01-29T10:07:50;98970.13;;;3.55;100.00
13661;BME280;6903;49.480;11.102;2023-01-29T10:10:28;98975.56;;;3.49;100.00
13661;BME280;6903;49.480;11.102;2023-01-29T10:13:02;98981.41;;;3.56;100.00
13661;BME280;6903;49.480;11.102;2023-01-29T10:15:41;98981.94;;;3.65;100.00
13661;BME280;6903;49.480;11.102;2023-01-29T10:18:36;98994.22;;;3.62;100.00
13661;BME280;6903;49.480;11.102;2023-01-29T10:21:23;98998.44;;;3.41;100.00
13661;BME280;6903;49.480;11.102;2023-01-29T10:26:22;98983.06;;;3.58;100.00
13661;BME280;6903;49.480;11.102;2023-01-29T10:28:51;98979.34;;;3.65;100.00
13661;BME280;6903;49.480;11.102;2023-01-29T10:31:23;98981.09;;;3.65;100.00
13661;BME280;6903;49.480;11.102;2023-01-29T10:33:58;98990.59;;;3.66;100.00
13661;BME280;6903;49.480;11.102;2023-01-29T10:36:33;98998.13;;;3.75;100.00
13661;BME280;6903;49.480;11.102;2023-01-29T10:39:00;99007.25;;;3.86;100.00
13661;BME280;6903;49.480;11.102;2023-01-29T10:41:43;99011.50;;;3.64;100.00
13661;BME280;6903;49.480;11.102;2023-01-29T10:44:36;99014.94;;;3.66;100.00
13661;BME280;6903;49.480;11.102;2023-01-29T10:47:31;99017.31;;;3.72;100.00
13661;BME280;6903;49.480;11.102;2023-01-29T10:50:16;99008.09;;;3.87;100.00
13661;BME280;6903;49.480;11.102;2023-01-29T10:52:55;98992.72;;;3.79;100.00
13661;BME280;6903;49.480;11.102;2023-01-29T10:55:38;98990.50;;;3.69;100.00
13661;BME280;6903;49.480;11.102;2023-01-29T10:58:19;98986.94;;;3.47;100.00
13661;BME280;6903;49.480;11.102;2023-01-29T11:00:50;98981.50;;;3.53;100.00
13661;BME280;6903;49.480;11.102;2023-01-29T11:03:24;98977.50;;;3.67;100.00
13661;BME280;6903;49.480;11.102;2023-01-29T11:06:09;98975.00;;;3.64;100.00
13661;BME280;6903;49.480;11.102;2023-01-29T11:11:49;98952.16;;;3.71;100.00
13661;BME280;6903;49.480;11.102;2023-01-29T11:14:26;98953.88;;;3.72;100.00
13661;BME280;6903;49.480;11.102;2023-01-29T11:16:53;98947.00;;;3.69;100.00
13661;BME280;6903;49.480;11.102;2023-01-29T11:19:36;98945.22;;;3.47;100.00
13661;BME280;6903;49.480;11.102;2023-01-29T11:22:02;98933.03;;;3.23;100.00
13661;BME280;6903;49.480;11.102;2023-01-29T11:24:28;98932.47;;;3.15;100.00
13661;BME280;6903;49.480;11.102;2023-01-29T11:26:56;98915.78;;;3.20;100.00
13661;BME280;6903;49.480;11.102;2023-01-29T11:31:51;98907.56;;;3.55;100.00
13661;BME280;6903;49.480;11.102;2023-01-29T11:34:20;98894.63;;;3.75;100.00
13661;BME280;6903;49.480;11.102;2023-01-29T11:36:58;98888.28;;;3.82;100.00
13661;BME280;6903;49.480;11.102;2023-01-29T11:39:26;98891.13;;;3.76;100.00
13661;BME280;6903;49.480;11.102;2023-01-29T11:41:57;98883.28;;;3.99;100.00
13661;BME280;6903;49.480;11.102;2023-01-29T11:44:27;98877.09;;;4.23;100.00
13661;BME280;6903;49.480;11.102;2023-01-29T11:46:53;98883.69;;;3.89;100.00
13661;BME280;6903;49.480;11.102;2023-01-29T11:49:38;98877.97;;;3.79;100.00
13661;BME280;6903;49.480;11.102;2023-01-29T11:52:07;98875.53;;;3.75;100.00
13661;BME280;6903;49.480;11.102;2023-01-29T11:54:37;98877.50;;;3.68;100.00
13661;BME280;6903;49.480;11.102;2023-01-29T11:57:04;98872.69;;;3.58;100.00
13661;BME280;6903;49.480;11.102;2023-01-29T11:59:45;98872.41;;;3.65;100.00
13661;BME280;6903;49.480;11.102;2023-01-29T12:02:24;98876.78;;;3.65;100.00
13661;BME280;6903;49.480;11.102;2023-01-29T12:04:54;98864.00;;;3.80;100.00
13661;BME280;6903;49.480;11.102;2023-01-29T12:07:21;98864.41;;;3.93;100.00
13661;BME280;6903;49.480;11.102;2023-01-29T12:09:54;98855.97;;;3.86;100.00
13661;BME280;6903;49.480;11.102;2023-01-29T12:12:29;98849.56;;;3.93;100.00
13661;BME280;6903;49.480;11.102;2023-01-29T12:15:04;98847.31;;;4.07;100.00
13661;BME280;6903;49.480;11.102;2023-01-29T12:17:32;98839.69;;;4.01;100.00
13661;BME280;6903;49.480;11.102;2023-01-29T12:20:03;98827.56;;;4.00;100.00
13661;BME280;6903;49.480;11.102;2023-01-29T12:22:41;98834.53;;;4.21;100.00
13661;BME280;6903;49.480;11.102;2023-01-29T12:25:33;98830.94;;;4.46;100.00
13661;BME280;6903;49.480;11.102;2023-01-29T12:28:06;98826.66;;;4.43;100.00
13661;BME280;6903;49.480;11.102;2023-01-29T12:30:48;98818.41;;;4.54;100.00
13661;BME280;6903;49.480;11.102;2023-01-29T12:33:40;98824.50;;;4.54;100.00
13661;BME280;6903;49.480;11.102;2023-01-29T12:36:20;98826.81;;;4.40;100.00
13661;BME280;6903;49.480;11.102;2023-01-29T12:38:48;98829.59;;;4.57;100.00
13661;BME280;6903;49.480;11.102;2023-01-29T12:41:35;98818.84;;;4.43;100.00
13661;BME280;6903;49.480;11.102;2023-01-29T12:44:09;98812.19;;;4.36;100.00
13661;BME280;6903;49.480;11.102;2023-01-29T12:46:42;98800.25;;;4.51;100.00
13661;BME280;6903;49.480;11.102;2023-01-29T12:49:22;98796.09;;;4.67;100.00
13661;BME280;6903;49.480;11.102;2023-01-29T12:51:58;98785.31;;;4.74;100.00
13661;BME280;6903;49.480;11.102;2023-01-29T12:54:48;98786.88;;;4.38;100.00
13661;BME280;6903;49.480;11.102;2023-01-29T12:57:41;98787.03;;;4.33;100.00
13661;BME280;6903;49.480;11.102;2023-01-29T13:00:17;98789.03;;;4.49;100.00
13661;BME280;6903;49.480;11.102;2023-01-29T13:03:18;98774.53;;;4.62;100.00
13661;BME280;6903;49.480;11.102;2023-01-29T13:05:56;98774.06;;;4.72;100.00
13661;BME280;6903;49.480;11.102;2023-01-29T13:08:43;98779.72;;;4.83;100.00
13661;BME280;6903;49.480;11.102;2023-01-29T13:11:28;98780.16;;;4.93;100.00
13661;BME280;6903;49.480;11.102;2023-01-29T13:14:00;98781.25;;;4.87;100.00
13661;BME280;6903;49.480;11.102;2023-01-29T13:16:32;98781.25;;;4.87;100.00
13661;BME280;6903;49.480;11.102;2023-01-29T13:22:01;98774.78;;;4.96;100.00
13661;BME280;6903;49.480;11.102;2023-01-29T13:24:37;98775.16;;;4.87;100.00
13661;BME280;6903;49.480;11.102;2023-01-29T13:27:03;98780.66;;;4.81;100.00
13661;BME280;6903;49.480;11.102;2023-01-29T13:29:29;98776.22;;;4.83;100.00
13661;BME280;6903;49.480;11.102;2023-01-29T13:32:00;98762.72;;;4.73;100.00
13661;BME280;6903;49.480;11.102;2023-01-29T13:34:29;98763.50;;;4.55;100.00
13661;BME280;6903;49.480;11.102;2023-01-29T13:37:01;98762.53;;;4.38;100.00
13661;BME280;6903;49.480;11.102;2023-01-29T13:39:29;98765.66;;;4.46;100.00
13661;BME280;6903;49.480;11.102;2023-01-29T13:41:57;98762.13;;;4.47;100.00
13661;BME280;6903;49.480;11.102;2023-01-29T13:44:33;98752.88;;;4.40;100.00
13661;BME280;6903;49.480;11.102;2023-01-29T13:47:00;98754.44;;;4.23;100.00
13661;BME280;6903;49.480;11.102;2023-01-29T13:49:28;98759.28;;;4.11;100.00
13661;BME280;6903;49.480;11.102;2023-01-29T13:51:54;98761.66;;;4.17;100.00
13661;BME280;6903;49.480;11.102;2023-01-29T13:54:23;98753.69;;;4.20;100.00
13661;BME280;6903;49.480;11.102;2023-01-29T13:56:58;98756.31;;;4.20;100.00
13661;BME280;6903;49.480;11.102;2023-01-29T13:59:48;98748.16;;;4.06;100.00
13661;BME280;6903;49.480;11.102;2023-01-29T14:02:25;98755.53;;;3.96;100.00
13661;BME280;6903;49.480;11.102;2023-01-29T14:10:22;98767.06;;;3.69;100.00
13661;BME280;6903;49.480;11.102;2023-01-29T14:12:52;98769.19;;;3.60;100.00